Airfield :
LOGIN :

Register | Disclaimer

   EN    FR    IT 

 










Legend :    VFR   Marginal VFR   IFR   Intensive IFR   Very Intensive IFR
Visi :
Ceiling :
>= 8 km
>= 3000ft
5 to 8 km
1000 to 3000 ft
1500m to 5 km
500 to 1000 ft
800 to 1500m
200 to 500 ft
< 800m
< 200 ft
Symbols :   Thunderstorms  Fog  Heavy snow  Heavy precipitations  Wind > 20 kt
SIGMETs :     Misc.  Thunderstorms  Icing  Turbulence  Mountain Waves  Volcanic Ashes






- Airport Elevation : 870 ft
- IATA code : ETZ


LFJL - Metz Nancy Lorraine

CURRENT METAR :
  • 232330Z AUTO 12006KT 4800 BR OVC005 M01/M01 Q1026 TEMPO 0500 FZFG VV///

EXPIRED METARs :
  • 232300Z AUTO 11008KT 5000 BR OVC005 M00/M01 Q1026 TEMPO 0500 FZFG VV///
  • 232230Z AUTO 12007KT 4300 BR OVC004 M00/M01 Q1026 TEMPO 0500 FZFG VV///
  • 232200Z AUTO 11007KT 4500 BR OVC004 M00/M01 Q1026 TEMPO 0500 FZFG VV///
  • 232130Z AUTO 11009KT 070V140 4600 BR OVC004 M00/M01 Q1026 TEMPO 0500 FZFG VV///

TAF TAF LFJL
Valid from the 24 at 00:00 until the 25 at 00:00 UTC


232300Z 2400/2424 10010KT 4500 BR OVC004
TEMPO 2400/2410 2000 OVC001
PROB40
TEMPO 2400/2409 0500 FZFG VV///
BECMG 2410/2413 BKN010
BECMG 2413/2415 VRB02KT CAVOK



MET'MAP, your aeronautical weather chart ! - Copyright ORBIFLY December 2007 - Disclaimer

ORBIFLY MET'MAP TEAM :

Programming & Development : Alexandra Zaïnal
Concept & original design : Baudouin d'Aumeries
Assistance for programming : Marc-Olivier Méhu
Technical & hardware support : Manuel Goepfert

Contact : metmap@orbifly.com




SOURCES & CREDITS :

   NOAA